Terminal Aerodrome Forecast
Issued by NWS

Home | Current Version | Previous Version | Text Only | Print | Product List | Glossary On
Versions: 1 2 3 4 5 6 7 8 9 10 11 12
000
FTUS46 KEKA 061139
TAFUKI
TAF
KUKI 061139Z 0612/0712 16006KT P6SM SKC
     FM061330 16006KT P6SM BKN008
     FM061600 16006KT P6SM SCT008
     FM062000 16010G18KT P6SM SKC
     FM070300 VRB03KT P6SM SKC=

USA.gov is the U.S. government's official web portal to all federal, state and local government web resources and services.